Time;durP1;ratioP1;P1;durP2;ratioP2;P2;SDS_P1;SDS_P2;PMS_P1;PMS_P2;Temp;Humidity;BMP_temperature;BMP_pressure;BME280_temperature;BME280_humidity;BME280_pressure;Samples;Min_cycle;Max_cycle;Signal;HPM_P1;HPM_P2
2023/01/28 00:00:30;;;;;;;4.33;3.23;;;-0.40;99.90;;;;;;4999114;28;20320;-71
2023/01/28 00:02:55;;;;;;;7.40;3.60;;;-0.40;99.90;;;;;;4998862;28;20197;-72
2023/01/28 00:05:22;;;;;;;6.70;3.63;;;-0.50;99.90;;;;;;5009375;28;20257;-71
2023/01/28 00:07:49;;;;;;;4.60;3.27;;;-0.50;99.90;;;;;;5017232;28;20192;-69
2023/01/28 00:10:15;;;;;;;4.30;3.03;;;-0.50;99.90;;;;;;5008439;28;20199;-71
2023/01/28 00:12:40;;;;;;;5.30;3.57;;;-0.60;99.90;;;;;;5013560;28;20211;-71
2023/01/28 00:15:07;;;;;;;6.80;3.10;;;-0.60;99.90;;;;;;5017624;28;20552;-71
2023/01/28 00:17:32;;;;;;;3.53;2.37;;;-0.60;99.90;;;;;;5018020;28;20200;-72
2023/01/28 00:19:58;;;;;;;5.77;3.07;;;-0.60;99.90;;;;;;5013309;28;20237;-71
2023/01/28 00:22:23;;;;;;;6.10;3.10;;;-0.70;99.90;;;;;;5013480;28;20235;-72
2023/01/28 00:24:49;;;;;;;7.80;2.97;;;-0.70;99.90;;;;;;5017339;28;20769;-71
2023/01/28 00:27:15;;;;;;;10.13;3.33;;;-0.70;99.90;;;;;;5008181;28;20344;-71
2023/01/28 00:29:40;;;;;;;3.77;2.87;;;-0.80;99.90;;;;;;5012387;28;20770;-72
2023/01/28 00:32:06;;;;;;;6.40;2.83;;;-0.80;99.90;;;;;;5000096;28;20683;-72
2023/01/28 00:34:31;;;;;;;6.10;2.87;;;-0.90;99.90;;;;;;5005697;28;20576;-71
2023/01/28 00:36:57;;;;;;;5.77;2.60;;;-0.90;99.90;;;;;;5005708;28;20683;-72
2023/01/28 00:39:24;;;;;;;6.40;3.17;;;-1.00;99.90;;;;;;5009195;28;20561;-73
2023/01/28 00:41:51;;;;;;;6.80;3.60;;;-1.00;99.90;;;;;;5013298;28;20209;-73
2023/01/28 00:44:17;;;;;;;4.47;3.00;;;-1.00;99.90;;;;;;5014047;28;20639;-72
2023/01/28 00:46:42;;;;;;;5.77;2.90;;;-1.00;99.90;;;;;;5005486;28;20678;-71
2023/01/28 00:49:07;;;;;;;4.10;2.47;;;-1.00;99.90;;;;;;5006012;28;20745;-71
2023/01/28 00:51:33;;;;;;;4.27;3.40;;;-1.00;99.90;;;;;;5009090;28;20266;-69
2023/01/28 00:53:59;;;;;;;7.00;3.00;;;-1.00;99.90;;;;;;5015733;28;20786;-70
2023/01/28 00:56:24;;;;;;;5.53;2.57;;;-1.00;99.90;;;;;;5011660;28;20207;-71
2023/01/28 00:58:50;;;;;;;8.97;2.87;;;-1.00;99.90;;;;;;4981990;28;20200;-70
2023/01/28 01:01:18;;;;;;;6.67;3.13;;;-1.00;99.90;;;;;;4997737;28;20208;-69
2023/01/28 01:03:44;;;;;;;5.70;2.97;;;-0.90;99.90;;;;;;5009645;28;20232;-70
2023/01/28 01:06:12;;;;;;;4.53;2.80;;;-0.90;99.90;;;;;;5003407;28;20212;-71
2023/01/28 01:08:41;;;;;;;3.87;2.77;;;-0.80;99.90;;;;;;5004976;28;20213;-70
2023/01/28 01:11:09;;;;;;;12.27;3.53;;;-0.70;99.90;;;;;;5015998;28;20290;-69
2023/01/28 01:13:35;;;;;;;4.40;2.83;;;-0.70;99.90;;;;;;5011788;28;20277;-70
2023/01/28 01:16:12;;;;;;;5.50;2.77;;;-0.60;99.90;;;;;;5007460;28;20236;-69
2023/01/28 01:18:41;;;;;;;4.27;2.67;;;-0.50;99.90;;;;;;5001625;28;20289;-72
2023/01/28 01:21:09;;;;;;;5.00;2.83;;;-0.50;99.90;;;;;;5007325;28;20259;-68
2023/01/28 01:23:34;;;;;;;7.10;3.63;;;-0.40;99.90;;;;;;5005347;28;20701;-70
2023/01/28 01:26:00;;;;;;;5.03;2.13;;;-0.40;99.90;;;;;;5002982;28;20326;-69
2023/01/28 01:28:26;;;;;;;6.00;2.63;;;-0.30;99.90;;;;;;5009197;28;20213;-68
2023/01/28 01:31:00;;;;;;;2.60;2.40;;;-0.20;99.90;;;;;;5006542;28;20342;-68
2023/01/28 01:33:27;;;;;;;3.57;2.57;;;-0.20;99.90;;;;;;5007330;28;20287;-67
2023/01/28 01:35:56;;;;;;;4.97;2.57;;;-0.10;99.90;;;;;;5005886;28;20237;-69
2023/01/28 01:38:21;;;;;;;6.97;2.73;;;-0.10;99.90;;;;;;5005508;28;20303;-69
2023/01/28 01:40:47;;;;;;;4.03;2.33;;;0.00;99.90;;;;;;5007677;28;20293;-69
2023/01/28 01:43:18;;;;;;;4.80;2.77;;;0.00;99.90;;;;;;5007048;28;20255;-68
2023/01/28 01:45:48;;;;;;;8.30;3.33;;;0.00;99.90;;;;;;5011114;28;20662;-66
2023/01/28 01:48:19;;;;;;;16.53;9.90;;;0.00;99.90;;;;;;5006177;28;20206;-67
2023/01/28 01:51:00;;;;;;;14.47;7.27;;;-0.10;99.90;;;;;;5004774;28;20316;-67
2023/01/28 01:53:28;;;;;;;4.77;4.33;;;0.20;99.90;;;;;;5009366;28;20316;-68
2023/01/28 01:55:59;;;;;;;23.87;11.03;;;0.30;99.90;;;;;;5006408;28;20209;-69
2023/01/28 01:58:30;;;;;;;15.20;7.33;;;0.40;99.90;;;;;;5004891;28;20312;-69
2023/01/28 02:00:57;;;;;;;6.37;4.90;;;0.40;99.90;;;;;;5005457;28;20231;-66
2023/01/28 02:03:30;;;;;;;7.87;5.37;;;0.30;99.90;;;;;;5003877;28;20225;-65
2023/01/28 02:05:56;;;;;;;16.47;10.07;;;0.50;99.90;;;;;;5006440;28;20724;-65
2023/01/28 02:08:22;;;;;;;7.47;3.93;;;0.50;99.90;;;;;;5005357;28;20308;-65
2023/01/28 02:10:49;;;;;;;9.83;6.23;;;0.70;99.90;;;;;;5005418;28;20213;-66
2023/01/28 02:13:17;;;;;;;3.87;3.07;;;0.60;99.90;;;;;;5005530;28;20204;-66
2023/01/28 02:15:44;;;;;;;5.13;3.60;;;0.60;99.90;;;;;;4995859;28;20210;-66
2023/01/28 02:18:10;;;;;;;5.07;3.87;;;0.80;99.90;;;;;;5006720;28;20213;-67
2023/01/28 02:20:56;;;;;;;4.53;3.17;;;0.70;99.90;;;;;;4996790;28;20211;-67
2023/01/28 02:23:54;;;;;;;19.87;9.07;;;0.60;99.90;;;;;;4976989;28;20226;-68
2023/01/28 02:26:30;;;;;;;8.30;4.57;;;0.60;99.90;;;;;;4983475;28;20210;-67
2023/01/28 02:29:04;;;;;;;10.07;5.20;;;0.70;99.90;;;;;;4975250;28;20203;-67
2023/01/28 02:31:37;;;;;;;6.00;5.07;;;0.70;99.90;;;;;;4977176;28;20573;-67
2023/01/28 02:37:51;;;;;;;5.67;3.93;;;0.80;99.90;;;;;;4986663;28;20214;-67
2023/01/28 02:40:26;;;;;;;10.80;6.50;;;0.70;99.90;;;;;;4990760;28;20213;-68
2023/01/28 02:42:51;;;;;;;12.47;7.90;;;0.90;99.90;;;;;;4986993;28;20206;-69
2023/01/28 02:47:56;;;;;;;6.73;3.43;;;0.80;99.90;;;;;;4989150;28;20210;-67
2023/01/28 02:48:13;;;;;;;6.17;4.60;;;0.70;99.90;;;;;;4986753;28;20239;-67
2023/01/28 02:50:49;;;;;;;14.23;9.13;;;0.70;99.90;;;;;;4976692;28;20632;-67
2023/01/28 02:53:39;;;;;;;6.23;4.47;;;0.70;99.90;;;;;;4986471;28;20626;-65
2023/01/28 02:56:14;;;;;;;6.37;3.13;;;0.70;99.90;;;;;;4985939;28;20206;-69
2023/01/28 03:02:20;;;;;;;4.70;3.60;;;0.60;99.90;;;;;;4976504;28;20213;-68
2023/01/28 03:05:07;;;;;;;4.83;3.80;;;0.90;99.90;;;;;;4980935;28;20234;-68
2023/01/28 03:07:36;;;;;;;5.03;3.07;;;0.80;99.90;;;;;;4979934;28;20198;-65
2023/01/28 03:10:06;;;;;;;6.23;4.13;;;0.80;99.90;;;;;;4985389;28;20215;-67
2023/01/28 03:38:21;;;;;;;7.20;4.90;;;1.30;99.90;;;;;;5003740;28;20265;-67
2023/01/28 03:41:02;;;;;;;6.27;3.50;;;1.40;99.90;;;;;;5011824;28;20210;-66
2023/01/28 03:43:31;;;;;;;12.47;8.13;;;1.20;99.90;;;;;;5004461;28;20243;-66
2023/01/28 03:45:56;;;;;;;10.73;5.70;;;1.20;99.90;;;;;;5002268;28;20562;-68
2023/01/28 03:48:24;;;;;;;7.33;5.63;;;1.10;99.90;;;;;;5006449;28;20200;-68
2023/01/28 03:50:50;;;;;;;5.73;3.67;;;1.00;99.90;;;;;;5015948;28;20812;-67
2023/01/28 03:53:17;;;;;;;2.67;2.30;;;1.10;99.90;;;;;;5000027;28;20212;-68
2023/01/28 03:55:43;;;;;;;5.57;3.73;;;0.80;99.90;;;;;;5002134;28;20216;-67
2023/01/28 03:58:10;;;;;;;4.00;2.97;;;0.70;99.90;;;;;;5009600;28;20209;-67
2023/01/28 04:00:36;;;;;;;11.73;6.97;;;0.60;99.90;;;;;;5011808;28;20216;-67
2023/01/28 04:03:03;;;;;;;4.60;3.33;;;0.90;99.90;;;;;;5012822;28;20213;-66
2023/01/28 04:05:29;;;;;;;3.83;3.00;;;1.10;99.90;;;;;;5004958;28;20218;-66
2023/01/28 04:07:55;;;;;;;5.27;3.27;;;1.20;99.90;;;;;;4999692;28;20206;-65
2023/01/28 04:10:21;;;;;;;6.93;3.80;;;1.10;99.90;;;;;;4999396;28;20547;-66
2023/01/28 04:12:48;;;;;;;38.33;23.77;;;1.10;99.90;;;;;;5003265;28;20198;-67
2023/01/28 04:15:15;;;;;;;98.20;60.93;;;1.00;99.90;;;;;;4997317;28;20575;-66
2023/01/28 04:17:47;;;;;;;5.93;3.50;;;1.00;99.90;;;;;;4999920;28;20296;-67
2023/01/28 04:20:14;;;;;;;24.70;17.30;;;1.10;99.90;;;;;;5003593;28;21323;-67
2023/01/28 04:22:40;;;;;;;12.40;8.30;;;1.10;99.90;;;;;;5009178;28;20260;-66
2023/01/28 04:25:05;;;;;;;10.50;7.43;;;1.10;99.90;;;;;;5006351;28;20252;-67
2023/01/28 04:27:31;;;;;;;10.73;6.13;;;1.10;99.90;;;;;;5011327;28;20237;-67
2023/01/28 04:29:56;;;;;;;28.60;16.80;;;1.20;99.90;;;;;;5006581;28;20620;-67
2023/01/28 04:32:22;;;;;;;25.43;16.03;;;1.20;99.90;;;;;;5006389;28;20192;-66
2023/01/28 04:34:47;;;;;;;55.43;32.83;;;1.40;99.90;;;;;;5004554;28;20284;-67
2023/01/28 04:37:14;;;;;;;52.50;29.97;;;1.40;99.90;;;;;;5002957;28;20260;-67
2023/01/28 04:39:39;;;;;;;28.93;18.57;;;1.40;99.90;;;;;;5011031;28;20757;-66
2023/01/28 04:42:04;;;;;;;23.30;15.43;;;1.70;99.90;;;;;;5016400;28;20718;-66
2023/01/28 04:44:30;;;;;;;39.87;24.67;;;1.60;99.90;;;;;;5010638;28;20324;-66
2023/01/28 04:46:56;;;;;;;66.40;41.60;;;1.50;99.90;;;;;;5011732;28;20203;-66
2023/01/28 04:49:21;;;;;;;51.43;32.57;;;1.60;99.90;;;;;;5011556;28;20380;-66
2023/01/28 04:51:47;;;;;;;9.77;5.47;;;1.70;99.90;;;;;;5011089;28;20917;-66
2023/01/28 04:54:12;;;;;;;42.10;24.97;;;1.70;99.90;;;;;;5009864;28;20202;-66
2023/01/28 04:56:37;;;;;;;7.80;5.27;;;1.60;99.90;;;;;;5013296;28;20686;-65
2023/01/28 04:59:03;;;;;;;22.43;13.80;;;1.70;99.90;;;;;;5014368;28;20198;-66
2023/01/28 05:01:29;;;;;;;10.00;8.23;;;1.90;99.90;;;;;;5005115;28;20575;-67
2023/01/28 05:03:54;;;;;;;32.43;22.83;;;2.00;99.90;;;;;;5009820;28;20228;-66
2023/01/28 05:06:20;;;;;;;13.33;10.97;;;2.00;99.90;;;;;;5011681;28;20212;-67
2023/01/28 05:08:45;;;;;;;5.00;4.00;;;2.00;99.90;;;;;;5010719;28;20213;-67
2023/01/28 05:11:12;;;;;;;4.97;3.00;;;1.80;99.90;;;;;;5009492;28;20228;-67
2023/01/28 05:13:38;;;;;;;10.77;7.43;;;1.80;99.90;;;;;;5008547;28;20210;-67
2023/01/28 05:16:04;;;;;;;15.70;10.50;;;1.90;99.90;;;;;;5008331;28;20278;-66
2023/01/28 05:18:30;;;;;;;30.27;20.57;;;1.90;99.90;;;;;;5012209;28;20310;-67
2023/01/28 05:20:55;;;;;;;4.80;4.17;;;2.00;99.90;;;;;;5014327;28;20259;-67
2023/01/28 05:23:21;;;;;;;5.93;4.67;;;1.90;99.90;;;;;;5009997;28;20202;-67
2023/01/28 05:25:46;;;;;;;10.93;6.37;;;1.70;99.90;;;;;;5006463;28;20208;-67
2023/01/28 05:28:12;;;;;;;5.00;3.60;;;1.80;99.90;;;;;;5005574;28;20363;-67
2023/01/28 05:30:38;;;;;;;5.90;3.70;;;1.80;99.90;;;;;;5004015;28;20221;-66
2023/01/28 05:33:04;;;;;;;6.40;4.30;;;1.60;99.90;;;;;;5006073;28;20279;-67
2023/01/28 05:35:29;;;;;;;16.97;9.03;;;1.50;99.90;;;;;;5005177;28;20396;-67
2023/01/28 05:37:55;;;;;;;8.90;4.60;;;1.40;99.90;;;;;;5008492;28;20851;-68
2023/01/28 05:40:21;;;;;;;7.20;4.10;;;1.50;99.90;;;;;;5010507;28;20236;-67
2023/01/28 05:42:46;;;;;;;9.70;4.53;;;1.40;99.90;;;;;;4998571;28;20296;-67
2023/01/28 05:45:12;;;;;;;4.43;3.10;;;1.50;99.90;;;;;;4999860;28;20329;-67
2023/01/28 05:47:38;;;;;;;5.03;3.63;;;1.50;99.90;;;;;;4997877;28;20216;-67
2023/01/28 05:50:04;;;;;;;6.63;5.53;;;1.40;99.90;;;;;;5007962;28;20676;-65
2023/01/28 05:52:29;;;;;;;11.60;7.00;;;1.40;99.90;;;;;;5007711;28;20202;-68
2023/01/28 05:54:55;;;;;;;5.30;4.30;;;1.60;99.90;;;;;;4998437;28;20223;-67
2023/01/28 05:57:20;;;;;;;14.37;8.00;;;1.70;99.90;;;;;;4995617;28;20199;-73
2023/01/28 05:59:46;;;;;;;7.83;4.47;;;1.90;99.90;;;;;;5007697;28;20197;-69
2023/01/28 06:02:11;;;;;;;6.63;5.57;;;1.80;99.90;;;;;;5004483;28;20199;-68
2023/01/28 06:04:37;;;;;;;5.80;4.97;;;1.60;99.90;;;;;;4997606;28;20344;-67
2023/01/28 06:07:03;;;;;;;5.47;4.23;;;1.70;99.90;;;;;;5004990;28;20203;-69
2023/01/28 06:09:28;;;;;;;6.63;4.73;;;1.60;99.90;;;;;;5011545;28;20196;-68
2023/01/28 06:11:54;;;;;;;8.97;5.10;;;1.50;99.90;;;;;;5000062;28;20247;-68
2023/01/28 06:14:19;;;;;;;12.40;6.83;;;1.60;99.90;;;;;;4998501;28;20199;-67
2023/01/28 06:16:45;;;;;;;10.63;6.90;;;1.90;99.90;;;;;;5011201;28;20572;-68
2023/01/28 06:19:10;;;;;;;9.33;6.93;;;1.90;99.90;;;;;;5007429;28;20253;-70
2023/01/28 06:21:36;;;;;;;10.07;6.70;;;1.80;99.90;;;;;;5004133;28;21041;-68
2023/01/28 06:24:01;;;;;;;14.83;8.77;;;1.60;99.90;;;;;;5005524;28;20218;-68
2023/01/28 06:26:27;;;;;;;10.90;7.30;;;1.70;99.90;;;;;;5000709;28;20201;-69
2023/01/28 06:28:52;;;;;;;7.67;6.03;;;1.80;99.90;;;;;;5006350;28;20549;-68
2023/01/28 06:31:18;;;;;;;9.60;6.03;;;1.80;99.90;;;;;;5003504;28;20217;-67
2023/01/28 06:33:44;;;;;;;9.80;6.17;;;1.80;99.90;;;;;;5003057;28;20734;-69
2023/01/28 06:36:09;;;;;;;7.87;6.13;;;1.70;99.90;;;;;;4999670;28;20892;-68
2023/01/28 06:38:35;;;;;;;12.60;7.53;;;1.70;99.90;;;;;;5005100;28;20242;-69
2023/01/28 06:41:00;;;;;;;10.70;6.93;;;1.90;99.90;;;;;;4997580;28;20669;-68
2023/01/28 06:43:29;;;;;;;8.93;5.57;;;1.70;99.90;;;;;;5003400;28;20201;-67
2023/01/28 06:45:59;;;;;;;8.07;5.60;;;1.50;99.90;;;;;;5003672;28;20677;-67
2023/01/28 06:48:25;;;;;;;10.07;6.23;;;1.40;99.90;;;;;;5004330;28;20677;-67
2023/01/28 06:50:51;;;;;;;10.97;6.00;;;1.40;99.90;;;;;;5003265;28;20204;-68
2023/01/28 06:53:17;;;;;;;8.50;6.63;;;1.40;99.90;;;;;;4999658;28;20197;-67
2023/01/28 06:55:43;;;;;;;9.53;6.43;;;1.70;99.90;;;;;;5001287;28;20752;-68
2023/01/28 06:58:09;;;;;;;10.07;7.07;;;1.80;99.90;;;;;;5004847;28;20284;-70
2023/01/28 07:00:34;;;;;;;8.67;6.43;;;1.90;99.90;;;;;;4999703;28;20538;-66
2023/01/28 07:03:00;;;;;;;5.53;4.57;;;1.90;99.90;;;;;;5006145;28;20203;-67
2023/01/28 07:05:25;;;;;;;5.73;3.97;;;1.70;99.90;;;;;;4999607;28;20211;-66
2023/01/28 07:07:51;;;;;;;5.17;4.10;;;1.60;99.90;;;;;;5005440;28;20244;-67
2023/01/28 07:10:17;;;;;;;7.07;3.33;;;1.60;99.90;;;;;;4997965;28;20727;-67
2023/01/28 07:12:42;;;;;;;3.03;1.87;;;1.50;99.90;;;;;;5001857;28;20737;-68
2023/01/28 07:15:09;;;;;;;1.97;1.50;;;1.40;99.90;;;;;;5007063;28;20195;-67
2023/01/28 07:17:40;;;;;;;1.77;1.40;;;1.30;99.90;;;;;;5005408;28;20927;-66
2023/01/28 07:20:06;;;;;;;1.87;1.77;;;1.30;99.90;;;;;;5000416;28;20206;-68
2023/01/28 07:22:32;;;;;;;2.30;2.00;;;1.40;99.90;;;;;;5004484;28;20281;-69
2023/01/28 07:24:59;;;;;;;3.03;2.13;;;1.40;99.90;;;;;;4983472;28;20233;-69
2023/01/28 07:27:25;;;;;;;7.13;2.80;;;1.60;99.90;;;;;;5006025;28;20213;-69
2023/01/28 07:29:51;;;;;;;2.43;1.90;;;1.70;99.90;;;;;;5008571;28;20244;-70
2023/01/28 07:32:17;;;;;;;6.13;2.87;;;1.60;99.90;;;;;;5007019;28;20243;-67
2023/01/28 07:34:42;;;;;;;4.20;2.83;;;1.60;99.90;;;;;;4997841;28;20271;-68
2023/01/28 07:37:09;;;;;;;3.80;2.80;;;1.70;99.90;;;;;;5001478;28;21240;-67
2023/01/28 07:39:35;;;;;;;4.43;2.30;;;1.70;99.90;;;;;;5003911;28;20821;-66
2023/01/28 07:42:00;;;;;;;4.73;2.67;;;1.70;99.90;;;;;;5000695;28;20206;-66
2023/01/28 07:44:26;;;;;;;2.67;2.20;;;1.80;99.90;;;;;;5002340;28;20599;-67
2023/01/28 07:46:52;;;;;;;2.60;2.23;;;1.90;99.90;;;;;;5002969;28;20206;-68
2023/01/28 07:49:18;;;;;;;5.47;3.20;;;2.00;99.90;;;;;;5008612;28;20208;-66
2023/01/28 07:51:45;;;;;;;4.83;3.33;;;1.90;99.90;;;;;;4999458;28;20296;-66
2023/01/28 07:54:11;;;;;;;7.73;3.40;;;1.80;99.90;;;;;;5005803;28;20214;-67
2023/01/28 07:56:37;;;;;;;3.53;2.20;;;1.70;99.90;;;;;;5012045;28;20210;-67
2023/01/28 07:59:03;;;;;;;5.97;2.50;;;1.70;99.90;;;;;;5002412;28;20614;-67
2023/01/28 08:01:28;;;;;;;4.67;3.00;;;1.70;99.90;;;;;;5003039;28;20201;-69
2023/01/28 08:03:54;;;;;;;4.57;2.20;;;1.60;99.90;;;;;;5004265;28;20373;-69
2023/01/28 08:06:19;;;;;;;2.13;1.90;;;1.70;99.90;;;;;;5006808;28;20281;-68
2023/01/28 08:08:46;;;;;;;3.63;2.00;;;1.80;99.90;;;;;;4999725;28;20212;-68
2023/01/28 08:11:12;;;;;;;4.07;1.93;;;1.90;99.90;;;;;;5000983;28;20199;-69
2023/01/28 08:13:37;;;;;;;2.23;1.13;;;1.90;99.90;;;;;;5000256;28;20209;-69
2023/01/28 08:16:03;;;;;;;2.43;1.87;;;1.70;99.90;;;;;;5005970;28;20199;-69
2023/01/28 08:18:28;;;;;;;1.60;1.50;;;1.60;99.90;;;;;;5016113;28;20788;-70
2023/01/28 08:20:56;;;;;;;9.50;4.00;;;1.60;99.90;;;;;;5009552;28;20261;-69
2023/01/28 08:23:21;;;;;;;6.43;4.63;;;1.80;99.90;;;;;;5004121;28;20303;-69
2023/01/28 08:25:47;;;;;;;5.10;3.03;;;2.00;99.90;;;;;;5008471;28;20302;-69
2023/01/28 08:28:14;;;;;;;2.93;2.23;;;2.20;99.90;;;;;;5016046;28;20985;-66
2023/01/28 08:30:40;;;;;;;6.07;2.80;;;2.40;99.90;;;;;;5013835;28;20214;-65
2023/01/28 08:33:07;;;;;;;2.20;2.00;;;2.30;99.90;;;;;;5000325;28;20206;-65
2023/01/28 08:35:33;;;;;;;2.27;1.23;;;2.30;99.90;;;;;;5006776;28;20214;-66
2023/01/28 08:38:00;;;;;;;2.93;1.50;;;2.10;99.90;;;;;;5006968;28;20639;-65
2023/01/28 08:40:26;;;;;;;2.17;1.53;;;1.80;99.90;;;;;;5010579;28;20207;-66
2023/01/28 08:42:53;;;;;;;4.10;1.30;;;1.80;99.90;;;;;;4999429;28;20218;-66
2023/01/28 08:45:21;;;;;;;3.57;1.73;;;1.70;99.90;;;;;;4998150;28;20249;-66
2023/01/28 08:47:57;;;;;;;3.90;1.47;;;1.80;99.90;;;;;;4999250;28;20253;-67
2023/01/28 08:50:28;;;;;;;3.17;1.07;;;2.00;99.90;;;;;;4999426;28;20196;-66
2023/01/28 08:52:59;;;;;;;1.53;1.43;;;2.00;99.90;;;;;;4999609;28;20208;-66
2023/01/28 08:55:26;;;;;;;2.27;1.37;;;2.10;99.90;;;;;;5010929;28;21489;-65
2023/01/28 08:57:52;;;;;;;2.93;2.10;;;2.30;99.90;;;;;;5016116;28;20201;-66
2023/01/28 09:00:19;;;;;;;3.83;2.13;;;2.40;99.90;;;;;;5012560;28;20253;-66
2023/01/28 09:02:45;;;;;;;1.97;1.43;;;2.60;99.90;;;;;;5005997;28;20211;-66
2023/01/28 09:05:11;;;;;;;1.37;1.23;;;2.90;99.90;;;;;;5017174;28;20504;-66
2023/01/28 09:07:37;;;;;;;2.77;1.80;;;2.80;99.90;;;;;;5010465;28;20298;-66
2023/01/28 09:10:04;;;;;;;1.57;1.43;;;2.80;99.90;;;;;;5003831;28;20692;-67
2023/01/28 09:12:30;;;;;;;1.50;1.40;;;2.60;99.90;;;;;;5013584;28;20602;-67
2023/01/28 09:14:55;;;;;;;2.07;1.60;;;2.60;99.90;;;;;;5000623;28;20244;-66
2023/01/28 09:17:21;;;;;;;2.83;1.50;;;2.60;99.90;;;;;;5012556;28;20237;-69
2023/01/28 09:19:47;;;;;;;2.93;2.00;;;2.80;99.90;;;;;;5010978;28;20234;-69
2023/01/28 09:22:12;;;;;;;1.33;1.10;;;2.80;99.90;;;;;;5004812;28;20703;-71
2023/01/28 09:24:38;;;;;;;7.10;1.30;;;2.60;99.90;;;;;;5004210;28;20690;-72
2023/01/28 09:27:03;;;;;;;3.50;1.33;;;2.40;99.90;;;;;;5001017;28;20224;-69
2023/01/28 09:29:29;;;;;;;1.80;1.43;;;2.50;99.90;;;;;;5007401;28;20219;-69
2023/01/28 09:31:54;;;;;;;1.63;1.40;;;2.60;99.90;;;;;;5008157;28;20719;-68
2023/01/28 09:34:20;;;;;;;2.20;1.63;;;2.80;99.90;;;;;;5009237;28;20220;-68
2023/01/28 09:36:46;;;;;;;2.00;1.20;;;3.10;99.90;;;;;;5009753;28;20197;-66
2023/01/28 09:39:11;;;;;;;2.40;1.20;;;3.40;99.90;;;;;;5011112;28;20209;-68
2023/01/28 09:42:03;;;;;;;1.50;1.40;;;3.30;99.90;;;;;;5010029;28;20214;-73
2023/01/28 09:44:41;;;;;;;0.90;0.90;;;3.20;99.90;;;;;;5006810;28;20219;-73
2023/01/28 09:47:18;;;;;;;2.77;0.97;;;3.10;99.90;;;;;;5007672;28;20202;-72
2023/01/28 09:49:49;;;;;;;1.80;1.27;;;2.80;99.90;;;;;;5006580;28;20206;-72
2023/01/28 09:52:18;;;;;;;1.83;1.27;;;2.50;99.90;;;;;;5009471;28;20202;-67
2023/01/28 09:54:50;;;;;;;1.30;1.20;;;2.60;99.90;;;;;;5013260;28;20218;-70
2023/01/28 09:57:22;;;;;;;3.00;1.50;;;2.80;99.90;;;;;;5005039;28;20239;-69
2023/01/28 09:59:48;;;;;;;3.30;1.23;;;2.80;99.90;;;;;;5000768;28;20222;-68
2023/01/28 10:02:45;;;;;;;2.57;1.27;;;2.80;99.90;;;;;;5008482;28;20217;-70
2023/01/28 10:05:38;;;;;;;1.40;1.30;;;2.90;99.90;;;;;;5003712;28;20226;-71
2023/01/28 10:08:25;;;;;;;2.53;1.20;;;2.90;99.90;;;;;;5003796;28;20293;-70
2023/01/28 10:11:01;;;;;;;2.70;2.07;;;3.10;99.90;;;;;;5013860;28;20672;-69
2023/01/28 10:13:58;;;;;;;0.87;0.67;;;3.00;99.90;;;;;;5012947;28;20213;-69
2023/01/28 10:16:33;;;;;;;1.37;1.20;;;2.80;99.90;;;;;;5005623;28;20311;-74
2023/01/28 10:19:09;;;;;;;1.00;0.90;;;2.90;99.90;;;;;;5005590;28;20664;-70
2023/01/28 10:21:48;;;;;;;2.73;1.27;;;2.90;99.90;;;;;;5004471;28;20235;-69
2023/01/28 10:24:28;;;;;;;0.80;0.80;;;3.20;99.90;;;;;;5005499;28;20281;-69
2023/01/28 10:26:54;;;;;;;4.37;1.37;;;3.30;99.90;;;;;;5001872;28;20746;-69
2023/01/28 10:29:24;;;;;;;2.03;1.10;;;3.30;99.90;;;;;;5011253;28;20731;-66
2023/01/28 10:31:57;;;;;;;3.03;1.00;;;3.00;99.90;;;;;;5011709;28;20230;-70
2023/01/28 10:34:23;;;;;;;2.20;0.80;;;2.90;99.90;;;;;;5008572;28;20230;-73
2023/01/28 10:36:50;;;;;;;0.80;0.80;;;3.00;99.90;;;;;;5009849;28;20280;-74
2023/01/28 10:39:18;;;;;;;1.53;0.87;;;3.20;99.90;;;;;;5004887;28;20205;-70
2023/01/28 10:41:43;;;;;;;0.93;0.90;;;3.10;99.90;;;;;;5005783;28;20240;-72
2023/01/28 10:44:18;;;;;;;5.70;3.03;;;3.30;99.70;;;;;;5007445;28;20422;-70
2023/01/28 10:46:45;;;;;;;21.17;12.50;;;3.30;99.90;;;;;;5005249;28;20206;-72
2023/01/28 10:49:28;;;;;;;3.20;1.73;;;3.40;99.90;;;;;;5006109;28;20665;-70
2023/01/28 10:51:53;;;;;;;2.03;1.40;;;3.40;99.90;;;;;;5007235;28;20201;-66
2023/01/28 10:54:27;;;;;;;1.87;1.47;;;3.30;99.90;;;;;;5003139;28;20195;-68
2023/01/28 10:57:02;;;;;;;1.30;1.00;;;3.10;99.90;;;;;;5007204;28;20208;-67
2023/01/28 10:59:40;;;;;;;2.50;1.20;;;3.10;99.90;;;;;;5008707;28;20208;-64
2023/01/28 11:02:27;;;;;;;2.27;1.60;;;3.50;99.90;;;;;;5009247;28;20210;-72
2023/01/28 11:05:15;;;;;;;2.13;1.10;;;3.70;99.90;;;;;;5006195;28;20226;-73
2023/01/28 11:07:41;;;;;;;1.60;1.13;;;3.90;99.90;;;;;;5002631;28;20714;-65
2023/01/28 11:10:33;;;;;;;2.77;0.90;;;3.90;99.90;;;;;;5006523;28;20206;-68
2023/01/28 11:13:01;;;;;;;1.53;0.80;;;3.50;99.90;;;;;;5005229;28;20192;-72
2023/01/28 11:15:27;;;;;;;2.63;2.30;;;3.30;99.90;;;;;;5006725;28;20203;-70
2023/01/28 11:18:01;;;;;;;2.23;1.53;;;3.30;99.90;;;;;;5002689;28;20203;-67
2023/01/28 11:20:30;;;;;;;2.93;1.60;;;3.30;99.90;;;;;;5000641;28;20219;-66
2023/01/28 11:22:56;;;;;;;2.17;1.97;;;3.40;99.90;;;;;;5005389;28;20725;-65
2023/01/28 11:25:36;;;;;;;3.30;2.10;;;3.40;99.90;;;;;;5004174;28;20276;-68
2023/01/28 11:28:06;;;;;;;3.37;1.60;;;3.20;99.90;;;;;;5004444;28;20544;-65
2023/01/28 11:30:35;;;;;;;1.83;1.50;;;3.00;99.90;;;;;;5011930;28;20195;-67
2023/01/28 11:33:13;;;;;;;3.07;2.00;;;2.50;99.90;;;;;;5010408;28;20213;-65
2023/01/28 11:35:39;;;;;;;3.70;2.20;;;2.60;99.90;;;;;;5006112;28;20236;-65
2023/01/28 11:38:17;;;;;;;1.43;1.03;;;2.40;99.90;;;;;;5008439;28;20751;-65
2023/01/28 11:40:54;;;;;;;3.60;1.97;;;2.40;99.90;;;;;;5015235;28;20693;-68
2023/01/28 11:43:22;;;;;;;0.70;0.70;;;2.40;99.90;;;;;;5010190;28;20212;-71
2023/01/28 11:46:11;;;;;;;3.67;1.33;;;2.40;99.90;;;;;;5010919;28;20219;-72
2023/01/28 11:49:07;;;;;;;5.10;1.70;;;2.40;99.90;;;;;;5015929;28;20228;-72
2023/01/28 11:51:50;;;;;;;4.57;1.37;;;2.70;99.90;;;;;;5004129;28;20194;-72
2023/01/28 11:54:46;;;;;;;3.47;1.63;;;2.70;99.90;;;;;;5012700;28;20506;-73
2023/01/28 11:57:21;;;;;;;2.07;1.47;;;3.10;99.90;;;;;;5012995;28;20644;-72
2023/01/28 12:00:14;;;;;;;21.60;2.40;;;3.20;99.90;;;;;;5008713;28;20228;-73
2023/01/28 12:02:51;;;;;;;1.20;1.20;;;2.90;99.90;;;;;;5008762;28;20694;-60
2023/01/28 12:05:45;;;;;;;4.87;2.77;;;3.80;99.90;;;;;;4984701;28;20274;-59
2023/01/28 12:08:38;;;;;;;3.90;2.90;;;4.20;99.90;;;;;;5008705;28;20196;-74
2023/01/28 12:14:55;;;;;;;1.17;1.10;;;4.50;99.90;;;;;;5002253;28;20338;-60
2023/01/28 12:17:58;;;;;;;1.43;1.03;;;4.60;99.90;;;;;;4997558;28;20203;-62
2023/01/28 12:21:09;;;;;;;1.90;1.30;;;4.70;99.90;;;;;;5001163;28;20355;-60
2023/01/28 12:24:16;;;;;;;1.37;1.27;;;4.80;99.90;;;;;;5011247;28;20198;-61
2023/01/28 12:27:02;;;;;;;1.83;1.10;;;4.90;99.90;;;;;;5012525;28;20549;-72
2023/01/28 12:29:46;;;;;;;1.73;1.63;;;4.70;99.90;;;;;;5009986;28;20203;-71
2023/01/28 12:32:47;;;;;;;2.10;1.47;;;4.60;99.90;;;;;;5009260;28;20238;-66
2023/01/28 12:35:31;;;;;;;2.87;1.27;;;4.40;99.90;;;;;;4957664;28;20336;-67
2023/01/28 12:38:02;;;;;;;2.93;1.90;;;4.30;99.90;;;;;;5005699;28;20287;-65
2023/01/28 12:40:49;;;;;;;6.77;3.27;;;4.30;99.90;;;;;;5010086;28;20594;-67
2023/01/28 12:43:44;;;;;;;2.37;1.77;;;4.30;99.90;;;;;;5007042;28;20276;-64
2023/01/28 12:46:44;;;;;;;3.73;3.40;;;4.30;99.90;;;;;;5002787;28;20254;-64
2023/01/28 12:49:30;;;;;;;5.40;3.07;;;4.20;99.90;;;;;;5001787;28;20196;-67
2023/01/28 12:52:33;;;;;;;5.67;2.90;;;4.10;99.90;;;;;;5013072;28;20295;-66
2023/01/28 12:55:00;;;;;;;6.40;3.70;;;4.10;99.90;;;;;;5005657;28;20596;-65
2023/01/28 12:57:28;;;;;;;9.00;6.50;;;4.00;99.90;;;;;;5006343;28;20205;-67
2023/01/28 13:00:17;;;;;;;12.00;6.17;;;4.00;99.90;;;;;;5014207;28;20237;-69
2023/01/28 13:02:52;;;;;;;3.93;2.20;;;4.00;99.90;;;;;;5004413;28;20215;-65
2023/01/28 13:05:24;;;;;;;2.30;1.60;;;4.00;99.90;;;;;;5008428;28;20213;-66
2023/01/28 13:07:56;;;;;;;1.30;1.20;;;3.90;99.90;;;;;;5004761;28;20192;-66
2023/01/28 13:10:24;;;;;;;1.40;1.30;;;3.80;99.90;;;;;;5009155;28;20475;-67
2023/01/28 13:12:50;;;;;;;0.87;0.63;;;3.60;99.90;;;;;;5006379;28;20211;-65
2023/01/28 13:15:17;;;;;;;3.03;2.03;;;3.60;99.90;;;;;;5004018;28;20210;-67
2023/01/28 13:17:57;;;;;;;1.10;1.10;;;3.50;99.90;;;;;;5005604;28;20212;-67
2023/01/28 13:20:37;;;;;;;2.07;1.23;;;3.50;99.90;;;;;;4988622;28;20259;-67
2023/01/28 13:23:19;;;;;;;2.10;1.07;;;3.60;99.90;;;;;;5013041;28;20231;-66
2023/01/28 13:25:51;;;;;;;1.13;0.70;;;3.60;99.90;;;;;;5006346;28;20258;-65
2023/01/28 13:28:31;;;;;;;2.07;0.97;;;3.50;99.30;;;;;;5009076;28;20278;-72
2023/01/28 13:31:08;;;;;;;0.70;0.70;;;3.40;99.60;;;;;;5008211;28;20747;-70
2023/01/28 13:33:39;;;;;;;1.77;1.40;;;3.40;99.50;;;;;;5009023;28;20669;-71
2023/01/28 13:36:15;;;;;;;1.17;1.07;;;3.40;99.50;;;;;;5012532;28;20199;-68
2023/01/28 13:38:42;;;;;;;1.50;1.00;;;3.40;99.90;;;;;;5011670;28;20210;-68
2023/01/28 13:41:07;;;;;;;0.80;0.80;;;3.40;99.60;;;;;;5001584;28;20203;-66
2023/01/28 13:43:32;;;;;;;0.63;0.60;;;3.30;99.30;;;;;;5006118;28;20286;-66
2023/01/28 13:46:02;;;;;;;5.13;1.37;;;3.20;99.30;;;;;;5010073;28;20649;-66